Time;durP1;ratioP1;P1;durP2;ratioP2;P2;SDS_P1;SDS_P2;PMS_P1;PMS_P2;Temp;Humidity;BMP_temperature;BMP_pressure;BME280_temperature;BME280_humidity;BME280_pressure;Samples;Min_cycle;Max_cycle;Signal;HPM_P1;HPM_P2
2022/02/06 00:01:35;;;;;;;4.53;2.07;;;1.80;99.90;;;;;;6314140;28;20294;-76
2022/02/06 00:04:42;;;;;;;7.67;1.90;;;1.90;99.90;;;;;;6336540;28;20299;-75
2022/02/06 00:07:48;;;;;;;7.27;2.30;;;1.90;99.90;;;;;;6337199;28;20455;-75
2022/02/06 00:10:54;;;;;;;6.07;2.67;;;2.00;99.90;;;;;;6336281;28;20269;-75
2022/02/06 00:13:59;;;;;;;10.10;2.20;;;2.00;99.90;;;;;;6336157;28;20321;-76
2022/02/06 00:17:06;;;;;;;7.40;2.20;;;2.00;99.90;;;;;;6335972;28;20276;-77
2022/02/06 00:20:14;;;;;;;13.17;2.10;;;2.10;99.90;;;;;;6336525;28;20274;-75
2022/02/06 00:23:23;;;;;;;7.60;2.50;;;2.10;99.90;;;;;;6336013;28;20297;-75
2022/02/06 00:26:36;;;;;;;6.43;1.70;;;2.20;99.90;;;;;;6336087;28;20588;-75
2022/02/06 00:29:50;;;;;;;3.93;1.83;;;2.20;99.90;;;;;;6336789;28;20578;-76
2022/02/06 00:33:02;;;;;;;3.23;1.80;;;2.20;99.90;;;;;;6335950;28;20294;-76
2022/02/06 00:39:27;;;;;;;10.57;1.80;;;2.30;99.90;;;;;;6333384;28;20470;-76
2022/02/06 00:42:33;;;;;;;6.50;1.87;;;2.40;99.90;;;;;;6335762;28;20292;-76
2022/02/06 00:45:38;;;;;;;6.63;2.20;;;2.40;99.90;;;;;;6335757;28;20289;-76
2022/02/06 00:48:50;;;;;;;6.00;2.33;;;2.40;99.90;;;;;;6335776;28;20299;-75
2022/02/06 00:52:02;;;;;;;8.73;2.37;;;2.40;99.90;;;;;;6336928;28;20267;-75
2022/02/06 00:55:08;;;;;;;5.27;1.83;;;2.50;99.90;;;;;;6341053;28;20277;-76
2022/02/06 00:58:14;;;;;;;11.57;2.13;;;2.50;99.90;;;;;;6340326;28;20301;-75
2022/02/06 01:01:19;;;;;;;5.87;2.50;;;2.50;99.90;;;;;;6336151;28;20335;-76
2022/02/06 01:04:28;;;;;;;4.20;2.03;;;2.50;99.90;;;;;;6337588;28;20469;-75
2022/02/06 01:07:33;;;;;;;5.00;1.90;;;2.40;99.90;;;;;;6341042;28;20305;-76
2022/02/06 01:10:38;;;;;;;3.47;1.87;;;2.40;99.90;;;;;;6341201;28;20264;-75
2022/02/06 01:13:54;;;;;;;6.97;1.83;;;2.40;99.90;;;;;;6340737;28;20307;-75
2022/02/06 01:17:08;;;;;;;7.20;2.23;;;2.50;99.90;;;;;;6341281;28;20549;-75
2022/02/06 01:20:24;;;;;;;5.77;2.50;;;2.40;99.90;;;;;;6339645;28;20297;-75
2022/02/06 01:23:38;;;;;;;4.60;2.07;;;2.40;99.90;;;;;;6340183;28;20288;-75
2022/02/06 01:26:47;;;;;;;3.73;2.10;;;2.50;99.90;;;;;;6340231;28;20290;-75
2022/02/06 01:29:58;;;;;;;3.00;1.83;;;2.40;99.90;;;;;;6340464;28;20480;-75
2022/02/06 01:33:09;;;;;;;4.77;1.90;;;2.40;99.90;;;;;;6339964;28;20295;-75
2022/02/06 01:36:25;;;;;;;3.40;1.77;;;2.40;99.90;;;;;;6340465;28;20274;-75
2022/02/06 01:39:47;;;;;;;4.73;2.50;;;2.40;99.90;;;;;;6340732;28;20581;-75
2022/02/06 01:42:59;;;;;;;8.17;2.10;;;2.50;99.90;;;;;;6339753;28;20291;-75
2022/02/06 02:03:14;;;;;;;5.93;2.33;;;2.50;99.90;;;;;;6338782;28;20294;-76
2022/02/06 02:13:44;;;;;;;7.90;2.03;;;2.50;99.90;;;;;;6236904;28;20317;-76
2022/02/06 02:20:43;;;;;;;4.03;1.90;;;2.50;99.90;;;;;;6338582;28;20282;-76
2022/02/06 02:27:15;;;;;;;3.73;1.83;;;2.50;99.90;;;;;;6329872;28;20570;-76
2022/02/06 02:30:45;;;;;;;4.30;1.93;;;2.50;99.90;;;;;;6339164;28;20456;-76
2022/02/06 02:47:25;;;;;;;3.97;1.80;;;2.50;99.90;;;;;;6331999;28;20295;-76
2022/02/06 02:50:34;;;;;;;8.93;1.83;;;2.50;99.90;;;;;;6338608;28;20266;-75
2022/02/06 02:53:44;;;;;;;2.73;1.67;;;2.50;99.90;;;;;;6337894;28;20297;-76
2022/02/06 02:57:03;;;;;;;2.93;1.50;;;2.50;99.90;;;;;;6338023;28;20274;-75
2022/02/06 03:00:22;;;;;;;6.63;2.00;;;2.50;99.90;;;;;;6336600;28;20274;-75
2022/02/06 03:03:30;;;;;;;4.27;2.07;;;2.60;99.90;;;;;;6336950;28;20293;-76
2022/02/06 03:06:36;;;;;;;3.67;2.00;;;2.60;99.90;;;;;;6338734;28;20414;-75
2022/02/06 03:09:43;;;;;;;3.37;1.80;;;2.60;99.90;;;;;;6337901;28;20469;-75
2022/02/06 03:12:52;;;;;;;4.13;1.53;;;2.60;99.90;;;;;;6337379;28;20293;-76
2022/02/06 03:16:05;;;;;;;3.73;1.70;;;2.60;99.90;;;;;;6337579;28;20425;-75
2022/02/06 03:19:14;;;;;;;3.27;1.50;;;2.60;99.90;;;;;;6337484;28;20299;-75
2022/02/06 03:22:24;;;;;;;4.23;1.67;;;2.70;99.90;;;;;;6337698;28;20344;-75
2022/02/06 03:25:30;;;;;;;5.17;1.60;;;2.70;99.90;;;;;;6337634;28;20292;-76
2022/02/06 03:28:36;;;;;;;2.20;1.30;;;2.70;99.90;;;;;;6337830;27;20461;-76
2022/02/06 03:31:42;;;;;;;3.40;1.40;;;2.70;99.90;;;;;;6337650;28;20274;-76
2022/02/06 03:34:47;;;;;;;2.07;1.60;;;2.80;99.90;;;;;;6336824;28;20297;-76
2022/02/06 03:37:52;;;;;;;1.20;1.20;;;2.80;99.90;;;;;;6336477;28;20367;-75
2022/02/06 03:41:02;;;;;;;3.47;1.40;;;2.80;99.90;;;;;;6338115;28;20439;-75
2022/02/06 03:44:20;;;;;;;1.40;1.30;;;2.80;99.90;;;;;;6337533;28;20605;-75
2022/02/06 03:47:34;;;;;;;1.53;1.50;;;2.80;99.90;;;;;;6336148;28;20289;-76
2022/02/06 03:50:45;;;;;;;3.33;1.40;;;2.80;99.90;;;;;;6336881;28;20288;-76
2022/02/06 03:53:53;;;;;;;2.40;1.33;;;2.80;99.90;;;;;;6336163;28;20297;-75
2022/02/06 03:56:59;;;;;;;1.37;1.37;;;2.90;99.90;;;;;;6337283;28;20547;-76
2022/02/06 04:00:08;;;;;;;1.40;1.30;;;2.90;99.90;;;;;;6336726;28;20272;-77
2022/02/06 04:03:17;;;;;;;1.27;1.20;;;2.90;99.90;;;;;;6333322;28;20294;-76
2022/02/06 04:06:25;;;;;;;1.20;1.20;;;2.90;99.90;;;;;;6336658;28;20262;-76
2022/02/06 04:09:36;;;;;;;1.77;1.40;;;2.90;99.90;;;;;;6336255;28;20579;-75
2022/02/06 04:12:44;;;;;;;1.27;1.13;;;2.90;99.90;;;;;;6336958;28;20441;-75
2022/02/06 04:15:57;;;;;;;1.67;1.10;;;2.90;99.90;;;;;;6336428;28;20307;-75
2022/02/06 04:19:15;;;;;;;1.40;1.20;;;2.90;99.90;;;;;;6336715;28;20477;-76
2022/02/06 04:22:22;;;;;;;1.23;1.20;;;2.90;99.90;;;;;;6337598;28;20273;-75
2022/02/06 04:25:28;;;;;;;1.10;1.00;;;2.90;99.90;;;;;;6336590;28;20296;-76
2022/02/06 04:28:33;;;;;;;1.10;1.10;;;2.90;99.90;;;;;;6335910;28;20305;-76
2022/02/06 04:31:41;;;;;;;2.83;1.10;;;3.00;99.90;;;;;;6336487;28;20463;-76
2022/02/06 04:34:47;;;;;;;1.50;1.03;;;3.00;99.90;;;;;;6336420;28;20463;-77
2022/02/06 04:38:08;;;;;;;1.00;1.00;;;3.00;99.90;;;;;;6337137;28;20271;-76
2022/02/06 04:41:32;;;;;;;3.03;1.00;;;3.00;99.90;;;;;;6336070;28;20280;-76
2022/02/06 04:45:00;;;;;;;3.43;1.20;;;3.00;99.90;;;;;;6336069;28;20525;-76
2022/02/06 04:55:36;;;;;;;0.80;0.80;;;3.00;99.90;;;;;;6258312;28;20296;-76
2022/02/06 05:16:15;;;;;;;2.20;0.80;;;3.10;99.90;;;;;;6289870;28;20300;-75
2022/02/06 05:22:58;;;;;;;0.90;0.90;;;3.10;99.90;;;;;;6310415;28;20558;-75
2022/02/06 05:29:34;;;;;;;1.60;0.93;;;3.10;99.90;;;;;;6309640;28;20300;-75
2022/02/06 05:32:50;;;;;;;0.80;0.80;;;3.10;99.90;;;;;;6310715;28;20272;-76
2022/02/06 05:35:55;;;;;;;0.80;0.80;;;3.10;99.90;;;;;;6309533;28;20303;-76
2022/02/06 05:39:03;;;;;;;0.80;0.80;;;3.10;99.90;;;;;;6309587;28;20294;-75
2022/02/06 05:42:09;;;;;;;0.77;0.77;;;2.90;99.90;;;;;;6315049;28;20269;-76
2022/02/06 05:45:18;;;;;;;1.60;0.70;;;2.80;99.90;;;;;;6313749;28;20301;-76
2022/02/06 05:48:24;;;;;;;0.67;0.67;;;2.70;99.90;;;;;;6313617;28;20298;-76
2022/02/06 05:51:29;;;;;;;0.97;0.97;;;2.70;99.90;;;;;;6314878;28;20299;-76
2022/02/06 05:54:36;;;;;;;1.53;0.67;;;2.80;99.90;;;;;;6313974;28;20310;-76
2022/02/06 05:57:43;;;;;;;0.70;0.70;;;2.90;99.90;;;;;;6313721;28;20291;-76
2022/02/06 06:00:48;;;;;;;2.30;0.90;;;2.90;99.90;;;;;;6313211;28;20619;-76
2022/02/06 06:03:53;;;;;;;1.57;0.77;;;2.90;99.90;;;;;;6336294;28;20294;-75
2022/02/06 06:06:59;;;;;;;0.80;0.80;;;2.80;99.90;;;;;;6339302;28;20269;-76
2022/02/06 06:10:06;;;;;;;2.07;0.93;;;2.80;99.90;;;;;;6339193;28;20568;-75
2022/02/06 06:13:17;;;;;;;1.00;0.90;;;2.70;99.90;;;;;;6339637;28;20276;-76
2022/02/06 06:16:22;;;;;;;1.03;0.73;;;2.70;99.90;;;;;;6339014;28;20269;-76
2022/02/06 06:19:28;;;;;;;0.70;0.70;;;2.80;99.90;;;;;;6339317;28;20297;-75
2022/02/06 06:22:33;;;;;;;0.80;0.80;;;2.80;99.90;;;;;;6339493;28;20270;-76
2022/02/06 06:25:41;;;;;;;0.70;0.70;;;2.90;99.90;;;;;;6339374;28;20294;-76
2022/02/06 06:28:47;;;;;;;0.90;0.67;;;2.90;99.90;;;;;;6338609;28;20292;-76
2022/02/06 06:31:53;;;;;;;0.60;0.60;;;2.90;99.90;;;;;;6338877;28;20289;-75
2022/02/06 06:34:59;;;;;;;0.70;0.70;;;2.80;99.90;;;;;;6338859;28;20300;-76
2022/02/06 06:38:05;;;;;;;1.90;0.87;;;2.80;99.90;;;;;;6337978;28;20270;-76
2022/02/06 06:41:12;;;;;;;0.80;0.80;;;2.70;99.90;;;;;;6338285;28;20278;-75
2022/02/06 06:44:17;;;;;;;1.30;0.90;;;2.60;99.90;;;;;;6319690;28;20310;-76
2022/02/06 06:47:22;;;;;;;0.70;0.70;;;2.50;99.90;;;;;;6339328;28;20286;-75
2022/02/06 06:50:33;;;;;;;0.90;0.90;;;2.60;99.90;;;;;;6337210;28;20295;-76
2022/02/06 06:53:42;;;;;;;1.00;0.90;;;2.60;99.90;;;;;;6337192;28;20289;-76
2022/02/06 06:56:56;;;;;;;0.90;0.90;;;2.50;99.90;;;;;;6338510;28;20274;-76
2022/02/06 07:03:24;;;;;;;2.40;0.90;;;2.60;99.90;;;;;;6337560;28;20289;-75
2022/02/06 07:06:30;;;;;;;1.70;0.90;;;2.70;99.90;;;;;;6338209;28;20266;-75
2022/02/06 07:09:35;;;;;;;0.80;0.80;;;2.80;99.90;;;;;;6337321;28;20299;-75
2022/02/06 07:12:42;;;;;;;1.33;1.00;;;2.90;99.90;;;;;;6337786;28;20262;-75
2022/02/06 07:15:47;;;;;;;2.17;1.10;;;2.90;99.90;;;;;;6337381;28;20293;-75
2022/02/06 07:18:52;;;;;;;0.97;0.97;;;3.00;99.90;;;;;;6336949;28;20292;-75
2022/02/06 07:21:59;;;;;;;1.47;1.00;;;3.00;99.90;;;;;;6337991;28;20278;-75
2022/02/06 07:25:07;;;;;;;2.47;1.03;;;3.10;99.90;;;;;;6336805;28;20295;-76
2022/02/06 07:28:17;;;;;;;1.17;1.00;;;3.10;99.90;;;;;;6337062;28;20423;-75
2022/02/06 07:31:23;;;;;;;0.90;0.90;;;3.20;99.90;;;;;;6337340;28;20295;-76
2022/02/06 07:34:29;;;;;;;2.23;1.20;;;3.20;99.90;;;;;;6336486;28;20577;-75
2022/02/06 07:37:34;;;;;;;6.13;1.10;;;3.20;99.90;;;;;;6336872;28;20569;-75
2022/02/06 07:40:39;;;;;;;1.20;0.97;;;3.30;99.90;;;;;;6337028;28;20299;-75
2022/02/06 07:43:45;;;;;;;1.00;1.00;;;3.20;99.90;;;;;;6336703;28;20292;-77
2022/02/06 07:47:00;;;;;;;1.80;1.10;;;3.30;99.90;;;;;;6337874;28;20276;-74
2022/02/06 07:50:07;;;;;;;1.03;1.03;;;3.40;99.90;;;;;;6336642;28;20303;-75
2022/02/06 07:53:15;;;;;;;1.80;1.20;;;3.40;99.90;;;;;;6335791;28;20273;-75
2022/02/06 07:56:20;;;;;;;2.93;1.30;;;3.40;99.90;;;;;;6336745;28;20459;-75
2022/02/06 07:59:26;;;;;;;3.43;1.10;;;3.40;99.90;;;;;;6336902;28;20297;-76
2022/02/06 08:02:32;;;;;;;1.77;1.07;;;3.40;99.90;;;;;;6335774;28;20300;-76
2022/02/06 08:05:37;;;;;;;2.57;1.10;;;3.40;99.90;;;;;;6336163;28;20289;-75
2022/02/06 08:08:42;;;;;;;8.07;1.40;;;3.40;99.90;;;;;;6335972;28;20293;-76
2022/02/06 08:11:48;;;;;;;3.13;1.30;;;3.50;99.90;;;;;;6336036;28;20284;-76
2022/02/06 08:15:00;;;;;;;1.60;1.20;;;3.60;99.90;;;;;;6336187;28;20297;-76
2022/02/06 08:18:06;;;;;;;4.80;1.47;;;3.50;99.90;;;;;;6336069;28;20269;-76
2022/02/06 08:21:16;;;;;;;2.77;1.47;;;3.60;99.90;;;;;;6336468;28;20284;-76
2022/02/06 08:24:23;;;;;;;5.07;1.57;;;3.50;99.90;;;;;;6336323;28;20294;-76
2022/02/06 08:27:30;;;;;;;5.33;1.77;;;3.50;99.90;;;;;;6336905;28;20269;-75
2022/02/06 08:30:38;;;;;;;6.13;1.57;;;3.60;99.90;;;;;;6335767;28;20301;-76
2022/02/06 08:33:43;;;;;;;4.67;1.30;;;3.60;99.90;;;;;;6335975;28;20296;-76
2022/02/06 08:36:48;;;;;;;2.57;1.80;;;3.50;99.90;;;;;;6336708;28;20539;-75
2022/02/06 08:39:56;;;;;;;7.97;1.43;;;3.50;99.90;;;;;;6335937;28;20296;-75
2022/02/06 08:43:01;;;;;;;6.13;1.70;;;3.50;99.90;;;;;;6335919;28;20289;-76
2022/02/06 08:46:08;;;;;;;4.67;1.50;;;3.50;99.90;;;;;;6337141;28;20255;-75
2022/02/06 08:49:14;;;;;;;1.60;1.43;;;3.40;99.90;;;;;;6335824;28;20304;-76
2022/02/06 08:52:19;;;;;;;7.07;2.23;;;3.30;99.90;;;;;;6335955;28;20289;-76
2022/02/06 08:55:25;;;;;;;4.03;1.40;;;3.30;99.90;;;;;;6336048;28;20296;-76
2022/02/06 08:58:30;;;;;;;4.23;1.50;;;3.30;99.90;;;;;;6335818;28;20290;-76
2022/02/06 09:01:38;;;;;;;5.77;1.60;;;3.30;99.90;;;;;;6335196;28;20276;-76
2022/02/06 09:04:44;;;;;;;5.83;1.70;;;3.30;99.90;;;;;;6335842;28;20418;-76
2022/02/06 09:07:49;;;;;;;9.50;1.93;;;3.30;99.90;;;;;;6335447;28;20268;-76
2022/02/06 09:10:54;;;;;;;6.40;1.73;;;3.30;99.90;;;;;;6335850;28;20500;-76
2022/02/06 09:14:00;;;;;;;3.03;1.87;;;3.30;99.90;;;;;;6337308;28;20582;-76
2022/02/06 09:17:09;;;;;;;5.47;1.67;;;3.30;99.90;;;;;;6341553;28;20269;-76
2022/02/06 09:20:15;;;;;;;5.70;1.70;;;3.30;99.90;;;;;;6340272;28;20611;-76
2022/02/06 09:23:20;;;;;;;4.00;1.50;;;3.30;99.90;;;;;;6340233;28;20276;-76
2022/02/06 09:26:26;;;;;;;3.60;1.73;;;3.40;99.90;;;;;;6340992;28;20532;-76
2022/02/06 09:29:31;;;;;;;8.10;2.00;;;3.40;99.90;;;;;;6340224;28;20295;-77
2022/02/06 09:35:44;;;;;;;3.30;1.80;;;3.30;99.90;;;;;;6340656;28;20295;-76
2022/02/06 09:38:49;;;;;;;5.63;2.00;;;3.40;99.90;;;;;;6340324;28;20292;-76
2022/02/06 09:41:55;;;;;;;9.07;1.93;;;3.40;99.90;;;;;;6340480;28;20561;-76
2022/02/06 09:45:00;;;;;;;6.67;1.67;;;3.50;99.90;;;;;;6339998;28;20296;-76
2022/02/06 09:48:09;;;;;;;3.83;1.47;;;3.50;99.90;;;;;;6339412;28;20278;-77
2022/02/06 09:51:15;;;;;;;10.87;1.73;;;3.60;99.90;;;;;;6339711;28;20268;-76
2022/02/06 09:54:23;;;;;;;3.97;1.70;;;3.70;99.90;;;;;;6354554;28;20591;-76
2022/02/06 09:57:31;;;;;;;7.90;1.90;;;3.70;99.90;;;;;;6339257;28;20265;-76
2022/02/06 10:00:38;;;;;;;9.20;2.47;;;3.70;99.90;;;;;;6339795;28;20296;-76
2022/02/06 10:03:48;;;;;;;4.90;1.60;;;3.70;99.90;;;;;;6338610;28;20612;-76
2022/02/06 10:07:02;;;;;;;3.23;2.33;;;3.70;99.90;;;;;;6340291;28;20288;-76
2022/02/06 10:10:10;;;;;;;7.83;1.80;;;3.80;99.90;;;;;;6338799;28;20292;-76
2022/02/06 10:13:17;;;;;;;6.53;2.27;;;3.80;99.90;;;;;;6339279;28;20288;-76
2022/02/06 10:16:25;;;;;;;8.53;2.17;;;3.80;99.90;;;;;;6339344;28;20416;-76
2022/02/06 10:19:32;;;;;;;6.73;1.60;;;3.90;99.90;;;;;;6338385;28;20293;-76
2022/02/06 10:22:40;;;;;;;12.30;2.50;;;3.90;99.90;;;;;;6339722;28;20272;-76
2022/02/06 10:25:48;;;;;;;10.37;1.87;;;3.90;99.90;;;;;;6338139;28;20301;-76
2022/02/06 10:29:11;;;;;;;9.87;1.90;;;3.90;99.90;;;;;;6338475;28;20468;-76
2022/02/06 10:32:17;;;;;;;6.80;2.13;;;3.90;99.90;;;;;;6339151;28;20274;-76
2022/02/06 10:35:24;;;;;;;5.80;2.00;;;4.00;99.90;;;;;;6338771;28;20295;-76
2022/02/06 10:38:33;;;;;;;3.73;1.60;;;4.00;99.90;;;;;;6338320;28;20600;-76
2022/02/06 10:41:46;;;;;;;4.03;1.80;;;4.00;99.90;;;;;;6339059;28;20273;-76
2022/02/06 10:45:11;;;;;;;5.67;1.93;;;4.00;99.90;;;;;;6338302;28;20463;-76
2022/02/06 10:48:22;;;;;;;9.90;2.10;;;4.00;99.90;;;;;;6338763;28;20273;-76
2022/02/06 10:51:42;;;;;;;6.73;2.10;;;4.00;99.90;;;;;;6338286;28;20273;-76
2022/02/06 10:54:50;;;;;;;10.77;2.03;;;3.90;99.90;;;;;;6337734;28;20301;-76
2022/02/06 10:57:57;;;;;;;6.63;1.67;;;3.80;99.90;;;;;;6337785;28;20275;-76
2022/02/06 11:01:08;;;;;;;6.17;1.80;;;3.80;99.90;;;;;;6336297;28;20296;-76
2022/02/06 11:04:18;;;;;;;8.60;1.87;;;3.70;99.90;;;;;;6338112;28;20297;-76
2022/02/06 11:07:25;;;;;;;7.70;1.63;;;3.60;99.90;;;;;;6337961;28;20453;-76
2022/02/06 11:10:32;;;;;;;3.43;1.70;;;3.60;99.90;;;;;;6337705;28;20497;-76
2022/02/06 11:13:38;;;;;;;4.57;1.43;;;3.70;99.90;;;;;;6336817;28;20303;-76
2022/02/06 11:16:46;;;;;;;4.17;1.67;;;3.60;99.90;;;;;;6337956;28;20276;-75
2022/02/06 11:20:03;;;;;;;5.17;1.90;;;3.60;99.90;;;;;;6337678;28;20304;-74
2022/02/06 11:23:10;;;;;;;3.60;1.87;;;3.60;99.90;;;;;;6337799;28;20556;-75
2022/02/06 11:26:18;;;;;;;5.70;1.80;;;3.60;99.90;;;;;;6337486;28;20288;-76
2022/02/06 11:29:23;;;;;;;2.20;1.80;;;3.60;99.90;;;;;;6337739;28;20584;-76
2022/02/06 11:32:29;;;;;;;6.10;1.50;;;3.60;99.90;;;;;;6337739;28;20273;-76
2022/02/06 11:35:36;;;;;;;9.23;1.93;;;3.60;99.90;;;;;;6336683;28;20297;-75
2022/02/06 11:45:39;;;;;;;7.77;1.80;;;3.60;99.90;;;;;;6336318;28;20296;-76
2022/02/06 11:48:45;;;;;;;4.67;1.83;;;3.60;99.90;;;;;;6336042;28;20291;-76
2022/02/06 11:51:52;;;;;;;5.40;1.40;;;3.60;99.90;;;;;;6337397;28;20269;-76
2022/02/06 11:54:58;;;;;;;2.53;1.57;;;3.70;99.90;;;;;;6336440;28;20301;-76
2022/02/06 11:58:28;;;;;;;4.00;1.67;;;3.70;99.90;;;;;;6336512;28;20271;-76
2022/02/06 12:01:34;;;;;;;11.60;1.67;;;3.70;99.90;;;;;;6335949;28;20271;-76
2022/02/06 12:04:39;;;;;;;4.93;1.70;;;3.70;99.90;;;;;;6336364;28;20301;-76
2022/02/06 12:08:07;;;;;;;2.50;1.90;;;3.70;99.90;;;;;;6328718;28;20213;-76
2022/02/06 12:11:15;;;;;;;7.80;2.13;;;3.80;99.90;;;;;;6335082;28;20268;-75
2022/02/06 12:14:21;;;;;;;4.90;1.60;;;3.90;99.90;;;;;;6335439;28;20302;-76
2022/02/06 12:17:44;;;;;;;10.07;1.83;;;3.90;99.90;;;;;;6336993;28;20268;-75
2022/02/06 12:20:53;;;;;;;5.57;1.70;;;4.00;99.90;;;;;;6335633;28;20476;-75
2022/02/06 12:24:00;;;;;;;7.47;1.53;;;4.00;99.90;;;;;;6335584;28;20296;-75
2022/02/06 12:27:23;;;;;;;7.87;1.90;;;3.90;99.90;;;;;;6336583;28;20272;-75
2022/02/06 12:30:31;;;;;;;4.40;1.90;;;3.90;99.90;;;;;;6334473;28;20290;-75
2022/02/06 12:33:43;;;;;;;7.97;1.97;;;3.90;99.90;;;;;;6335347;28;20592;-76
2022/02/06 12:37:07;;;;;;;3.13;1.30;;;3.90;99.90;;;;;;6335817;28;20269;-76
2022/02/06 12:40:16;;;;;;;10.93;1.50;;;3.90;99.90;;;;;;6336229;28;20296;-76
2022/02/06 12:43:28;;;;;;;4.23;1.77;;;3.90;99.90;;;;;;6334477;28;20313;-74
2022/02/06 12:46:33;;;;;;;6.07;2.10;;;4.10;99.90;;;;;;6336675;28;20449;-73
2022/02/06 12:49:41;;;;;;;7.77;1.90;;;4.00;99.90;;;;;;6338763;28;20560;-73
2022/02/06 12:52:47;;;;;;;3.53;1.53;;;4.10;99.90;;;;;;6340544;28;20454;-73
2022/02/06 12:55:57;;;;;;;3.70;1.47;;;4.10;99.90;;;;;;6341330;28;20334;-73
2022/02/06 12:59:06;;;;;;;5.20;1.60;;;4.20;99.90;;;;;;6340439;28;20295;-73
2022/02/06 13:02:14;;;;;;;8.33;1.33;;;4.30;99.50;;;;;;6340413;28;20294;-74
2022/02/06 13:05:20;;;;;;;5.50;1.70;;;4.30;99.00;;;;;;6340190;28;20297;-73
2022/02/06 13:08:26;;;;;;;4.63;1.97;;;4.20;99.50;;;;;;6340809;28;20304;-76
2022/02/06 13:11:40;;;;;;;4.23;1.97;;;4.30;99.80;;;;;;6340761;28;20266;-73
2022/02/06 13:15:11;;;;;;;5.93;1.70;;;4.40;99.30;;;;;;6340189;28;20500;-74
2022/02/06 13:18:40;;;;;;;6.33;2.30;;;4.30;98.90;;;;;;6340517;28;20267;-75
2022/02/06 13:22:06;;;;;;;5.13;1.80;;;4.40;98.70;;;;;;6340074;28;20461;-73
2022/02/06 13:25:32;;;;;;;8.13;2.00;;;4.40;98.00;;;;;;6341003;28;20302;-72
2022/02/06 13:28:49;;;;;;;10.60;1.70;;;4.30;98.50;;;;;;6339786;28;20308;-74
2022/02/06 13:32:19;;;;;;;6.77;2.03;;;4.20;98.50;;;;;;6339657;28;20451;-75
2022/02/06 13:35:35;;;;;;;5.27;1.50;;;4.20;98.60;;;;;;6339685;28;20301;-73
2022/02/06 13:38:41;;;;;;;6.37;1.87;;;4.10;98.40;;;;;;6339340;28;20302;-71
2022/02/06 13:41:47;;;;;;;1.77;1.57;;;4.00;98.70;;;;;;6339859;28;20273;-72
2022/02/06 13:45:08;;;;;;;5.20;1.40;;;4.00;98.80;;;;;;6339373;28;20295;-73
2022/02/06 13:48:19;;;;;;;6.57;1.67;;;3.90;99.10;;;;;;6339770;28;20273;-72
2022/02/06 13:51:27;;;;;;;6.33;1.60;;;3.80;99.70;;;;;;6339344;28;20273;-72
2022/02/06 13:54:36;;;;;;;6.63;2.00;;;3.70;99.50;;;;;;6339361;28;20494;-73
2022/02/06 13:57:43;;;;;;;1.37;1.23;;;3.60;99.80;;;;;;6339117;28;20451;-72
2022/02/06 14:00:57;;;;;;;10.20;1.93;;;3.70;98.90;;;;;;6337287;28;20296;-73
2022/02/06 14:04:06;;;;;;;2.30;1.70;;;3.60;99.60;;;;;;6333220;28;20295;-74
2022/02/06 14:07:15;;;;;;;6.67;1.93;;;3.60;99.70;;;;;;6339267;28;20284;-75
2022/02/06 14:10:29;;;;;;;3.13;1.40;;;3.60;99.60;;;;;;6337981;28;20588;-73
2022/02/06 14:13:34;;;;;;;8.53;1.67;;;3.50;99.90;;;;;;6313787;28;20293;-71
2022/02/06 14:16:45;;;;;;;3.90;1.57;;;3.60;99.60;;;;;;6314607;28;20286;-73
2022/02/06 14:19:54;;;;;;;8.60;1.73;;;3.50;99.70;;;;;;6314950;28;20301;-73
2022/02/06 14:23:04;;;;;;;2.63;1.53;;;3.40;99.90;;;;;;6314546;28;20456;-76
2022/02/06 14:26:15;;;;;;;1.90;1.67;;;3.50;99.90;;;;;;6311906;28;20273;-76
2022/02/06 14:29:20;;;;;;;3.00;1.60;;;3.40;99.90;;;;;;6313133;28;20295;-72
2022/02/06 14:32:26;;;;;;;3.53;1.50;;;3.30;99.90;;;;;;6313726;28;20278;-74
2022/02/06 14:35:41;;;;;;;4.30;1.70;;;3.20;99.90;;;;;;6313576;28;20294;-73
2022/02/06 14:38:53;;;;;;;7.67;1.50;;;3.30;99.90;;;;;;6312949;28;20291;-73
2022/02/06 14:42:11;;;;;;;4.17;1.60;;;3.30;99.90;;;;;;6313836;28;20291;-72
2022/02/06 14:45:16;;;;;;;5.07;1.70;;;3.30;99.90;;;;;;6312626;28;20302;-72
2022/02/06 14:48:23;;;;;;;5.90;1.60;;;3.30;99.90;;;;;;6294687;28;20313;-72
2022/02/06 14:51:33;;;;;;;1.30;1.20;;;3.20;99.90;;;;;;6312988;28;20313;-72
2022/02/06 14:54:43;;;;;;;4.60;1.83;;;3.10;99.90;;;;;;6311981;28;20309;-73
2022/02/06 14:57:49;;;;;;;6.40;1.30;;;3.00;99.90;;;;;;6305799;28;20297;-74
2022/02/06 15:00:54;;;;;;;3.50;1.43;;;2.90;99.90;;;;;;6312112;28;20303;-73
2022/02/06 15:04:00;;;;;;;6.23;1.63;;;2.90;99.90;;;;;;6311995;28;20300;-73
2022/02/06 15:07:07;;;;;;;6.03;1.70;;;3.00;99.90;;;;;;6312231;28;20274;-73
2022/02/06 15:10:12;;;;;;;9.50;1.73;;;3.20;99.90;;;;;;6312585;28;20436;-73
2022/02/06 15:13:20;;;;;;;5.10;1.73;;;3.20;99.90;;;;;;6311583;28;20273;-73
2022/02/06 15:16:28;;;;;;;3.13;1.70;;;3.30;99.90;;;;;;6312608;28;20293;-73
2022/02/06 15:19:35;;;;;;;10.03;2.30;;;3.30;99.90;;;;;;6312194;28;20296;-73
2022/02/06 15:22:41;;;;;;;2.20;1.97;;;3.30;99.90;;;;;;6312122;28;20274;-73
2022/02/06 15:25:47;;;;;;;6.13;1.87;;;3.30;99.90;;;;;;6311310;28;20297;-73
2022/02/06 15:28:54;;;;;;;5.53;1.80;;;3.30;99.90;;;;;;6311163;28;20585;-74
2022/02/06 15:32:00;;;;;;;8.37;2.00;;;3.20;99.90;;;;;;6312204;28;20275;-73
2022/02/06 15:35:08;;;;;;;9.67;1.87;;;3.10;99.90;;;;;;6311445;28;20461;-73
2022/02/06 15:38:18;;;;;;;11.40;1.80;;;3.00;99.90;;;;;;6311301;28;20289;-73
2022/02/06 15:41:26;;;;;;;4.33;1.80;;;3.10;99.90;;;;;;6312193;28;20577;-73
2022/02/06 15:44:31;;;;;;;3.83;1.87;;;2.90;99.90;;;;;;6311085;28;20300;-73
2022/02/06 15:47:36;;;;;;;2.83;1.83;;;2.80;99.90;;;;;;6311876;28;20282;-72
2022/02/06 15:50:42;;;;;;;7.57;2.17;;;2.80;99.90;;;;;;6310511;28;20291;-73
2022/02/06 15:53:48;;;;;;;4.50;1.47;;;2.90;99.90;;;;;;6310672;28;20304;-75
2022/02/06 15:56:54;;;;;;;4.27;1.57;;;2.80;99.90;;;;;;6310806;28;20292;-72
2022/02/06 15:59:59;;;;;;;6.23;2.03;;;2.90;99.90;;;;;;6310457;28;20466;-71
2022/02/06 16:03:05;;;;;;;3.90;1.87;;;2.80;99.90;;;;;;6324306;28;20296;-73
2022/02/06 16:06:10;;;;;;;8.50;1.73;;;2.80;99.90;;;;;;6336798;28;20272;-73
2022/02/06 16:09:17;;;;;;;9.10;1.93;;;2.80;99.90;;;;;;6336340;28;20315;-73
2022/02/06 16:12:22;;;;;;;2.57;1.77;;;2.80;99.90;;;;;;6336520;28;20261;-73
2022/02/06 16:15:28;;;;;;;7.60;1.80;;;2.80;99.90;;;;;;6336870;28;20302;-72
2022/02/06 16:18:35;;;;;;;6.20;2.30;;;2.70;99.90;;;;;;6335963;28;20315;-73
2022/02/06 16:21:41;;;;;;;12.23;1.90;;;2.70;99.90;;;;;;6336925;28;20269;-73
2022/02/06 16:24:48;;;;;;;4.17;1.67;;;2.70;99.90;;;;;;6335950;28;20329;-72
2022/02/06 16:27:53;;;;;;;10.77;1.77;;;2.70;99.90;;;;;;6336488;28;20273;-73
2022/02/06 16:30:58;;;;;;;4.50;1.93;;;2.80;99.90;;;;;;6336277;28;20298;-73
2022/02/06 16:34:03;;;;;;;6.20;1.90;;;2.80;99.90;;;;;;6336301;28;20297;-73
2022/02/06 16:37:12;;;;;;;8.20;2.00;;;2.80;99.90;;;;;;6337330;28;20292;-73
2022/02/06 16:40:19;;;;;;;2.60;1.40;;;2.90;99.90;;;;;;6336596;28;20296;-73
2022/02/06 16:43:24;;;;;;;7.03;1.97;;;3.00;99.90;;;;;;6335917;28;20292;-73
2022/02/06 16:46:29;;;;;;;1.93;1.63;;;3.00;99.90;;;;;;6337078;28;20271;-73
2022/02/06 16:49:35;;;;;;;5.43;1.90;;;3.00;99.90;;;;;;6335956;28;20289;-73
2022/02/06 16:52:41;;;;;;;3.27;1.87;;;3.00;99.90;;;;;;6336912;28;20269;-73
2022/02/06 16:55:54;;;;;;;4.27;1.60;;;2.80;99.90;;;;;;6336356;28;20293;-73
2022/02/06 16:59:00;;;;;;;2.60;1.70;;;2.70;99.90;;;;;;6334600;28;20310;-71
2022/02/06 17:02:05;;;;;;;5.60;1.60;;;2.60;99.90;;;;;;6335176;28;20304;-73
2022/02/06 17:05:13;;;;;;;2.43;1.50;;;2.40;99.90;;;;;;6335389;28;20297;-72
2022/02/06 17:08:21;;;;;;;2.83;1.70;;;2.30;99.90;;;;;;6335794;28;20273;-73
2022/02/06 17:11:27;;;;;;;2.73;1.40;;;2.30;99.90;;;;;;6335944;28;20276;-72
2022/02/06 17:14:32;;;;;;;4.60;1.70;;;2.30;99.90;;;;;;6335132;28;20296;-73
2022/02/06 17:17:38;;;;;;;3.80;1.70;;;2.20;99.90;;;;;;6335393;28;20555;-73
2022/02/06 17:20:44;;;;;;;1.90;1.67;;;2.20;99.90;;;;;;6335919;28;20293;-73
2022/02/06 17:23:52;;;;;;;3.73;1.70;;;2.10;99.90;;;;;;6335417;28;20373;-72
2022/02/06 17:26:59;;;;;;;3.33;1.57;;;2.00;99.90;;;;;;6335506;28;20269;-72
2022/02/06 17:30:08;;;;;;;3.73;1.57;;;2.00;99.90;;;;;;6335660;28;20316;-73
2022/02/06 17:33:18;;;;;;;1.80;1.70;;;1.90;99.90;;;;;;6334527;28;20266;-72
2022/02/06 17:36:23;;;;;;;1.53;1.43;;;1.80;99.90;;;;;;6339715;28;20273;-73
2022/02/06 17:39:28;;;;;;;1.40;1.40;;;1.80;99.90;;;;;;6340349;28;20298;-73
2022/02/06 17:42:35;;;;;;;2.73;1.93;;;1.80;99.90;;;;;;6339983;28;20274;-72
2022/02/06 17:45:41;;;;;;;2.93;1.80;;;1.80;99.90;;;;;;6339308;28;20298;-75
2022/02/06 17:48:46;;;;;;;2.30;1.40;;;1.70;99.90;;;;;;6339599;28;20309;-72
2022/02/06 17:51:52;;;;;;;2.93;1.60;;;1.70;99.90;;;;;;6340302;28;20271;-72
2022/02/06 17:54:59;;;;;;;1.60;1.40;;;1.60;99.90;;;;;;6339691;28;20587;-72
2022/02/06 17:58:09;;;;;;;1.60;1.50;;;1.60;99.90;;;;;;6341429;28;20277;-73
2022/02/06 18:01:14;;;;;;;3.17;1.77;;;1.60;99.90;;;;;;6340043;28;20271;-72
2022/02/06 18:04:20;;;;;;;1.50;1.40;;;1.60;99.90;;;;;;6338955;28;20294;-72
2022/02/06 18:07:25;;;;;;;1.60;1.50;;;1.60;99.90;;;;;;6339605;28;20430;-72